Wetterdaten: Woche 23.05.16 - 29.05.16 (KW21)
Datum Zeit Temp. A. Feuchte A. Luftdruck Regen Wind Richtung Taupunkt Windchill Windben
23.05.2016 00:00 11,7 C 76 % 1010,3 hPa 0,0 l/m 6,5 km/h (2 Bft) NO 7,5 C 11,4 C 14,8 km/h (3 Bft)
23.05.2016 01:00 11,2 C 79 % 1010,2 hPa 0,0 l/m 5,3 km/h (1 Bft) O 7,6 C 11,2 C 14,4 km/h (3 Bft)
23.05.2016 02:00 10,8 C 82 % 1009,8 hPa 0,0 l/m 3,0 km/h (1 Bft) O-NO 7,8 C 10,8 C 9,2 km/h (2 Bft)
23.05.2016 03:00 10,2 C 88 % 1009,9 hPa 0,5 l/m 3,8 km/h (1 Bft) O 8,2 C 10,2 C 8,2 km/h (2 Bft)
23.05.2016 04:00 9,3 C 93 % 1010,0 hPa 1,0 l/m 4,2 km/h (1 Bft) O 8,1 C 9,3 C 10,3 km/h (2 Bft)
23.05.2016 05:00 8,7 C 93 % 1010,1 hPa 0,5 l/m 3,8 km/h (1 Bft) O-NO 7,7 C 8,7 C 8,8 km/h (2 Bft)
23.05.2016 06:00 8,4 C 93 % 1010,0 hPa 0,0 l/m 3,7 km/h (1 Bft) O-NO 7,4 C 8,4 C 8,3 km/h (2 Bft)
23.05.2016 07:00 8,1 C 93 % 1010,0 hPa 0,5 l/m 4,1 km/h (1 Bft) O-NO 7,1 C 8,1 C 10,8 km/h (2 Bft)
23.05.2016 08:00 8,1 C 94 % 1010,1 hPa 1,3 l/m 4,1 km/h (1 Bft) O-NO 7,1 C 8,1 C 9,8 km/h (2 Bft)
23.05.2016 09:00 8,2 C 93 % 1010,3 hPa 1,0 l/m 4,1 km/h (1 Bft) O 7,2 C 8,2 C 9,7 km/h (2 Bft)
23.05.2016 10:00 7,7 C 94 % 1011,5 hPa 2,5 l/m 4,1 km/h (1 Bft) O 6,8 C 7,7 C 10,1 km/h (2 Bft)
23.05.2016 11:00 8,1 C 93 % 1012,1 hPa 1,3 l/m 4,4 km/h (1 Bft) O 7,0 C 8,1 C 11,0 km/h (2 Bft)
23.05.2016 12:00 8,9 C 90 % 1012,0 hPa 0,0 l/m 3,8 km/h (1 Bft) O 7,4 C 8,9 C 8,6 km/h (2 Bft)
23.05.2016 13:00 8,7 C 89 % 1012,3 hPa 0,0 l/m 4,0 km/h (1 Bft) O 7,0 C 8,7 C 9,8 km/h (2 Bft)
23.05.2016 14:00 9,0 C 88 % 1012,8 hPa 0,0 l/m 4,9 km/h (1 Bft) O-NO 7,1 C 9,0 C 11,1 km/h (2 Bft)
23.05.2016 15:00 8,8 C 89 % 1012,9 hPa 0,3 l/m 3,6 km/h (1 Bft) O-NO 7,1 C 8,8 C 7,6 km/h (2 Bft)
23.05.2016 16:00 8,9 C 93 % 1013,1 hPa 1,5 l/m 4,3 km/h (1 Bft) O 7,7 C 8,9 C 10,2 km/h (2 Bft)
23.05.2016 17:00 8,7 C 93 % 1013,3 hPa 0,5 l/m 4,1 km/h (1 Bft) O-NO 7,6 C 8,7 C 10,4 km/h (2 Bft)
23.05.2016 18:00 8,4 C 93 % 1013,3 hPa 0,3 l/m 5,0 km/h (1 Bft) O 7,4 C 8,2 C 11,1 km/h (2 Bft)
23.05.2016 19:00 8,1 C 94 % 1013,4 hPa 0,0 l/m 4,7 km/h (1 Bft) O-NO 7,2 C 8,1 C 12,6 km/h (3 Bft)
23.05.2016 20:00 8,0 C 95 % 1013,8 hPa 0,3 l/m 3,4 km/h (1 Bft) O-NO 7,2 C 8,0 C 7,9 km/h (2 Bft)
23.05.2016 21:00 8,0 C 95 % 1014,1 hPa 0,0 l/m 2,2 km/h (1 Bft) O 7,2 C 8,0 C 4,7 km/h (1 Bft)
23.05.2016 22:00 8,0 C 96 % 1014,4 hPa 0,3 l/m 2,3 km/h (1 Bft) O-NO 7,4 C 8,0 C 5,1 km/h (1 Bft)
23.05.2016 23:00 8,2 C 96 % 1014,3 hPa 0,0 l/m 2,1 km/h (1 Bft) O 7,6 C 8,2 C 6,4 km/h (2 Bft)
24.05.2016 00:00 8,4 C 95 % 1014,4 hPa 0,5 l/m 1,6 km/h (1 Bft) O 7,6 C 8,4 C 4,3 km/h (1 Bft)
24.05.2016 01:00 8,3 C 95 % 1014,7 hPa 0,0 l/m 1,1 km/h (1 Bft) O-NO 7,5 C 8,3 C 3,9 km/h (1 Bft)
24.05.2016 02:00 8,1 C 95 % 1014,4 hPa 0,0 l/m 3,0 km/h (1 Bft) O-SO 7,4 C 8,1 C 8,1 km/h (2 Bft)
24.05.2016 03:00 7,9 C 95 % 1014,6 hPa 0,0 l/m 3,8 km/h (1 Bft) O 7,1 C 7,9 C 9,3 km/h (2 Bft)
24.05.2016 04:00 7,7 C 95 % 1014,8 hPa 0,0 l/m 2,6 km/h (1 Bft) O-SO 7,0 C 7,7 C 7,8 km/h (2 Bft)
24.05.2016 05:00 7,6 C 95 % 1014,7 hPa 0,3 l/m 3,2 km/h (1 Bft) O 6,9 C 7,6 C 9,2 km/h (2 Bft)
24.05.2016 06:00 7,6 C 95 % 1014,9 hPa 0,3 l/m 2,2 km/h (1 Bft) O 6,9 C 7,6 C 5,9 km/h (2 Bft)
24.05.2016 07:00 7,7 C 95 % 1015,0 hPa 0,0 l/m 2,0 km/h (1 Bft) O 7,0 C 7,7 C 4,5 km/h (1 Bft)
24.05.2016 08:00 8,0 C 95 % 1015,0 hPa 0,3 l/m 2,1 km/h (1 Bft) O 7,3 C 8,0 C 5,4 km/h (2 Bft)
24.05.2016 09:00 8,6 C 95 % 1015,0 hPa 0,0 l/m 2,8 km/h (1 Bft) O 7,7 C 8,6 C 5,9 km/h (2 Bft)
24.05.2016 10:00 9,4 C 93 % 1015,1 hPa 0,3 l/m 3,6 km/h (1 Bft) O 8,3 C 9,4 C 9,0 km/h (2 Bft)
24.05.2016 11:00 10,1 C 89 % 1015,3 hPa 0,0 l/m 3,4 km/h (1 Bft) O 8,4 C 10,1 C 8,7 km/h (2 Bft)
24.05.2016 12:00 10,2 C 88 % 1015,3 hPa 0,0 l/m 3,9 km/h (1 Bft) O 8,3 C 10,2 C 7,9 km/h (2 Bft)
24.05.2016 13:00 9,5 C 92 % 1015,4 hPa 0,0 l/m 3,3 km/h (1 Bft) O-NO 8,2 C 9,5 C 7,8 km/h (2 Bft)
24.05.2016 14:00 9,3 C 92 % 1015,4 hPa 0,0 l/m 2,8 km/h (1 Bft) O 8,1 C 9,3 C 6,3 km/h (2 Bft)
24.05.2016 15:00 9,2 C 92 % 1015,4 hPa 0,0 l/m 2,3 km/h (1 Bft) O-NO 8,0 C 9,2 C 4,7 km/h (1 Bft)
24.05.2016 16:00 9,3 C 92 % 1015,3 hPa 0,0 l/m 2,1 km/h (1 Bft) O 8,0 C 9,3 C 5,5 km/h (2 Bft)
24.05.2016 17:00 9,1 C 93 % 1015,1 hPa 0,0 l/m 1,4 km/h (1 Bft) O 8,1 C 9,1 C 4,2 km/h (1 Bft)
24.05.2016 18:00 9,1 C 94 % 1015,0 hPa 0,0 l/m 0,8 km/h (0 Bft) O 8,2 C 9,1 C 2,6 km/h (1 Bft)
24.05.2016 19:00 9,3 C 92 % 1015,0 hPa 0,0 l/m 1,1 km/h (1 Bft) O-SO 8,0 C 9,3 C 2,9 km/h (1 Bft)
24.05.2016 20:00 9,2 C 91 % 1015,0 hPa 0,0 l/m 0,9 km/h (0 Bft) O-SO 7,9 C 9,2 C 3,1 km/h (1 Bft)
24.05.2016 21:00 8,9 C 93 % 1015,0 hPa 0,0 l/m 0,0 km/h (0 Bft) O-NO 7,9 C 8,9 C 0,3 km/h (0 Bft)
24.05.2016 22:00 8,7 C 94 % 1015,0 hPa 0,0 l/m 0,1 km/h (0 Bft) O-NO 7,8 C 8,7 C 0,7 km/h (0 Bft)
24.05.2016 23:00 8,7 C 95 % 1015,0 hPa 0,0 l/m 0,2 km/h (0 Bft) O-NO 7,9 C 8,7 C 1,1 km/h (1 Bft)
25.05.2016 00:00 8,6 C 95 % 1015,0 hPa 0,0 l/m 0,0 km/h (0 Bft) O-NO 7,9 C 8,6 C 0,6 km/h (0 Bft)
25.05.2016 01:00 8,3 C 96 % 1014,6 hPa 0,0 l/m 0,0 km/h (0 Bft) O-NO 7,7 C 8,3 C 0,3 km/h (0 Bft)
25.05.2016 02:00 8,4 C 96 % 1014,5 hPa 0,0 l/m 0,7 km/h (0 Bft) W-NW 7,8 C 8,4 C 2,4 km/h (1 Bft)
25.05.2016 03:00 8,4 C 95 % 1014,3 hPa 0,0 l/m 0,4 km/h (0 Bft) N 7,7 C 8,4 C 1,9 km/h (1 Bft)
25.05.2016 04:00 8,4 C 95 % 1014,0 hPa 0,0 l/m 0,2 km/h (0 Bft) N 7,6 C 8,4 C 1,3 km/h (1 Bft)
25.05.2016 05:00 8,3 C 95 % 1014,0 hPa 0,0 l/m 0,2 km/h (0 Bft) N 7,6 C 8,3 C 1,4 km/h (1 Bft)
25.05.2016 06:00 8,3 C 94 % 1014,2 hPa 0,0 l/m 0,2 km/h (0 Bft) N 7,4 C 8,3 C 1,4 km/h (1 Bft)
25.05.2016 07:00 8,6 C 90 % 1014,5 hPa 0,0 l/m 0,9 km/h (0 Bft) W 7,1 C 8,6 C 2,8 km/h (1 Bft)
25.05.2016 08:00 9,1 C 87 % 1014,7 hPa 0,0 l/m 2,1 km/h (1 Bft) NO 7,1 C 9,1 C 4,8 km/h (1 Bft)
25.05.2016 09:00 9,6 C 85 % 1014,7 hPa 0,0 l/m 1,7 km/h (1 Bft) NO 7,2 C 9,6 C 4,3 km/h (1 Bft)
25.05.2016 10:00 11,1 C 81 % 1014,6 hPa 0,0 l/m 2,0 km/h (1 Bft) O 7,9 C 11,1 C 5,9 km/h (2 Bft)
25.05.2016 11:00 13,5 C 75 % 1014,5 hPa 0,0 l/m 3,2 km/h (1 Bft) NW 9,1 C 13,5 C 7,1 km/h (2 Bft)
25.05.2016 12:00 15,2 C 68 % 1014,2 hPa 0,0 l/m 3,4 km/h (1 Bft) W-NW 9,4 C 15,2 C 5,8 km/h (2 Bft)
25.05.2016 13:00 17,1 C 62 % 1013,7 hPa 0,0 l/m 3,7 km/h (1 Bft) O-NO 9,8 C 17,1 C 6,1 km/h (2 Bft)
25.05.2016 14:00 18,3 C 58 % 1013,3 hPa 0,0 l/m 3,6 km/h (1 Bft) NW 10,0 C 18,3 C 6,7 km/h (2 Bft)
25.05.2016 15:00 18,9 C 55 % 1013,1 hPa 0,0 l/m 3,4 km/h (1 Bft) W-NW 9,6 C 18,9 C 7,6 km/h (2 Bft)
25.05.2016 16:00 19,2 C 54 % 1013,0 hPa 0,0 l/m 2,9 km/h (1 Bft) NW 9,5 C 19,2 C 6,7 km/h (2 Bft)
25.05.2016 17:00 18,5 C 57 % 1013,0 hPa 0,0 l/m 3,6 km/h (1 Bft) O 9,8 C 18,5 C 7,8 km/h (2 Bft)
25.05.2016 18:00 17,9 C 57 % 1013,1 hPa 0,0 l/m 3,3 km/h (1 Bft) O 9,3 C 17,9 C 6,8 km/h (2 Bft)
25.05.2016 19:00 17,0 C 58 % 1013,4 hPa 0,0 l/m 2,0 km/h (1 Bft) O 8,7 C 17,0 C 5,2 km/h (1 Bft)
25.05.2016 20:00 15,6 C 67 % 1013,7 hPa 0,0 l/m 0,4 km/h (0 Bft) O-SO 9,5 C 15,6 C 1,4 km/h (1 Bft)
25.05.2016 21:00 13,8 C 78 % 1014,2 hPa 0,0 l/m 0,2 km/h (0 Bft) W-NW 10,0 C 13,8 C 1,2 km/h (1 Bft)
25.05.2016 22:00 12,2 C 85 % 1014,8 hPa 0,0 l/m 0,1 km/h (0 Bft) W-NW 9,8 C 12,2 C 0,5 km/h (0 Bft)
25.05.2016 23:00 10,7 C 90 % 1014,8 hPa 0,0 l/m 0,0 km/h (0 Bft) W-NW 9,1 C 10,7 C 0,1 km/h (0 Bft)
26.05.2016 00:00 9,6 C 92 % 1014,9 hPa 0,0 l/m 0,0 km/h (0 Bft) W-NW 8,3 C 9,6 C 0,1 km/h (0 Bft)
26.05.2016 01:00 8,2 C 93 % 1015,1 hPa 0,0 l/m 0,0 km/h (0 Bft) W-NW 7,2 C 8,2 C 0,0 km/h (0 Bft)
26.05.2016 02:00 7,6 C 95 % 1015,1 hPa 0,0 l/m 0,0 km/h (0 Bft) W-NW 6,8 C 7,6 C 0,0 km/h (0 Bft)
26.05.2016 03:00 7,2 C 95 % 1015,2 hPa 0,0 l/m 0,0 km/h (0 Bft) W-NW 6,5 C 7,2 C 0,1 km/h (0 Bft)
26.05.2016 04:00 6,4 C 95 % 1015,3 hPa 0,0 l/m 0,0 km/h (0 Bft) W-NW 5,6 C 6,4 C 0,0 km/h (0 Bft)
26.05.2016 05:00 5,7 C 96 % 1015,4 hPa 0,0 l/m 0,0 km/h (0 Bft) W-NW 5,0 C 5,7 C 0,0 km/h (0 Bft)
26.05.2016 06:00 5,8 C 97 % 1015,4 hPa 0,0 l/m 0,0 km/h (0 Bft) W-NW 5,3 C 5,8 C 0,6 km/h (0 Bft)
26.05.2016 07:00 7,6 C 97 % 1015,5 hPa 0,0 l/m 0,4 km/h (0 Bft) W-NW 7,1 C 7,6 C 1,5 km/h (1 Bft)
26.05.2016 08:00 11,8 C 89 % 1015,6 hPa 0,0 l/m 1,1 km/h (1 Bft) N 10,0 C 11,8 C 2,7 km/h (1 Bft)
26.05.2016 09:00 15,5 C 78 % 1015,4 hPa 0,0 l/m 1,6 km/h (1 Bft) W-NW 11,6 C 15,5 C 3,8 km/h (1 Bft)
26.05.2016 10:00 18,5 C 62 % 1015,1 hPa 0,0 l/m 2,8 km/h (1 Bft) O-NO 11,0 C 18,5 C 7,2 km/h (2 Bft)
26.05.2016 11:00 20,2 C 53 % 1014,8 hPa 0,0 l/m 3,2 km/h (1 Bft) NO 10,3 C 20,2 C 7,9 km/h (2 Bft)
26.05.2016 12:00 21,6 C 47 % 1014,5 hPa 0,0 l/m 2,7 km/h (1 Bft) NW 9,9 C 21,6 C 5,8 km/h (2 Bft)
26.05.2016 13:00 22,3 C 46 % 1014,2 hPa 0,0 l/m 4,0 km/h (1 Bft) NO 10,0 C 22,3 C 9,9 km/h (2 Bft)
26.05.2016 14:00 23,1 C 43 % 1014,0 hPa 0,0 l/m 2,5 km/h (1 Bft) NO 9,7 C 23,1 C 6,6 km/h (2 Bft)
26.05.2016 15:00 23,8 C 42 % 1013,7 hPa 0,0 l/m 2,7 km/h (1 Bft) O 10,1 C 23,8 C 7,0 km/h (2 Bft)
26.05.2016 16:00 22,3 C 48 % 1013,4 hPa 0,0 l/m 2,6 km/h (1 Bft) NW 10,8 C 22,3 C 7,2 km/h (2 Bft)
26.05.2016 17:00 22,3 C 50 % 1013,1 hPa 0,0 l/m 2,5 km/h (1 Bft) NW 11,2 C 22,3 C 5,9 km/h (2 Bft)
26.05.2016 18:00 22,6 C 48 % 1013,0 hPa 0,0 l/m 3,3 km/h (1 Bft) W-NW 10,9 C 22,6 C 6,8 km/h (2 Bft)
26.05.2016 19:00 18,2 C 63 % 1013,3 hPa 0,0 l/m 3,4 km/h (1 Bft) NO 11,1 C 18,2 C 10,1 km/h (2 Bft)
26.05.2016 20:00 16,8 C 67 % 1013,2 hPa 0,0 l/m 0,7 km/h (0 Bft) W-NW 10,7 C 16,8 C 2,6 km/h (1 Bft)
26.05.2016 21:00 15,1 C 74 % 1013,3 hPa 0,0 l/m 0,4 km/h (0 Bft) W-NW 10,6 C 15,1 C 1,0 km/h (0 Bft)
26.05.2016 22:00 12,6 C 84 % 1013,6 hPa 0,0 l/m 0,0 km/h (0 Bft) W-NW 9,8 C 12,6 C 0,3 km/h (0 Bft)
26.05.2016 23:00 11,8 C 88 % 1013,6 hPa 0,0 l/m 0,0 km/h (0 Bft) W-NW 9,8 C 11,8 C 0,1 km/h (0 Bft)
27.05.2016 00:00 11,8 C 88 % 1013,4 hPa 0,0 l/m 0,0 km/h (0 Bft) W-NW 9,8 C 11,8 C 0,0 km/h (0 Bft)
27.05.2016 01:00 11,7 C 89 % 1012,8 hPa 0,0 l/m 0,0 km/h (0 Bft) W-NW 9,9 C 11,7 C 0,0 km/h (0 Bft)
27.05.2016 02:00 11,2 C 90 % 1012,5 hPa 0,0 l/m 0,0 km/h (0 Bft) W-NW 9,6 C 11,2 C 0,0 km/h (0 Bft)
27.05.2016 03:00 10,5 C 92 % 1012,5 hPa 0,0 l/m 0,0 km/h (0 Bft) W-NW 9,2 C 10,5 C 0,0 km/h (0 Bft)
27.05.2016 04:00 9,9 C 93 % 1012,5 hPa 0,0 l/m 0,0 km/h (0 Bft) W-NW 8,8 C 9,9 C 0,0 km/h (0 Bft)
27.05.2016 05:00 9,8 C 95 % 1012,6 hPa 0,0 l/m 0,0 km/h (0 Bft) W-NW 9,0 C 9,8 C 0,0 km/h (0 Bft)
27.05.2016 06:00 10,2 C 94 % 1012,7 hPa 0,0 l/m 0,0 km/h (0 Bft) W-NW 9,3 C 10,2 C 0,0 km/h (0 Bft)
27.05.2016 07:00 11,5 C 93 % 1013,1 hPa 0,0 l/m 0,0 km/h (0 Bft) W-NW 10,4 C 11,5 C 0,0 km/h (0 Bft)
27.05.2016 08:00 14,1 C 88 % 1013,6 hPa 0,0 l/m 0,0 km/h (0 Bft) W-NW 12,1 C 14,1 C 0,0 km/h (0 Bft)
27.05.2016 09:00 16,7 C 79 % 1013,8 hPa 0,0 l/m 1,6 km/h (1 Bft) O 13,0 C 16,7 C 4,1 km/h (1 Bft)
27.05.2016 10:00 18,9 C 68 % 1013,6 hPa 0,0 l/m 3,1 km/h (1 Bft) O-NO 12,9 C 18,9 C 8,3 km/h (2 Bft)
27.05.2016 11:00 20,6 C 62 % 1013,6 hPa 0,0 l/m 4,0 km/h (1 Bft) NO 13,0 C 20,6 C 7,9 km/h (2 Bft)
27.05.2016 12:00 21,4 C 61 % 1013,4 hPa 0,0 l/m 3,4 km/h (1 Bft) NO 13,5 C 21,4 C 7,4 km/h (2 Bft)
27.05.2016 13:00 23,4 C 53 % 1013,0 hPa 0,0 l/m 3,3 km/h (1 Bft) O-NO 13,1 C 23,4 C 8,3 km/h (2 Bft)
27.05.2016 14:00 24,8 C 44 % 1012,7 hPa 0,0 l/m 4,7 km/h (1 Bft) O-NO 11,7 C 24,8 C 11,5 km/h (2 Bft)
27.05.2016 15:00 25,8 C 41 % 1012,5 hPa 0,0 l/m 5,0 km/h (1 Bft) NO 11,6 C 25,8 C 11,1 km/h (2 Bft)
27.05.2016 16:00 25,2 C 43 % 1012,4 hPa 0,0 l/m 3,7 km/h (1 Bft) NO 11,6 C 25,2 C 8,4 km/h (2 Bft)
27.05.2016 17:00 24,0 C 53 % 1012,3 hPa 0,0 l/m 2,8 km/h (1 Bft) W-NW 13,6 C 24,0 C 7,1 km/h (2 Bft)
27.05.2016 18:00 22,7 C 61 % 1012,3 hPa 0,0 l/m 3,3 km/h (1 Bft) NW 14,7 C 22,7 C 7,0 km/h (2 Bft)
27.05.2016 19:00 21,2 C 64 % 1012,3 hPa 0,0 l/m 3,0 km/h (1 Bft) W 14,1 C 21,2 C 8,3 km/h (2 Bft)
27.05.2016 20:00 19,7 C 68 % 1012,6 hPa 0,0 l/m 1,5 km/h (1 Bft) W 13,6 C 19,7 C 4,4 km/h (1 Bft)
27.05.2016 21:00 18,5 C 73 % 1013,0 hPa 0,0 l/m 0,1 km/h (0 Bft) W 13,7 C 18,5 C 1,0 km/h (0 Bft)
27.05.2016 22:00 16,4 C 82 % 1013,2 hPa 0,0 l/m 0,0 km/h (0 Bft) W 13,3 C 16,4 C 0,3 km/h (0 Bft)
27.05.2016 23:00 14,5 C 88 % 1013,2 hPa 0,0 l/m 0,0 km/h (0 Bft) W 12,5 C 14,5 C 0,0 km/h (0 Bft)
28.05.2016 09:00 20,3 C 58 % 1011,5 hPa 0,0 l/m 2,4 km/h (1 Bft) O-NO 11,8 C 20,3 C 4,8 km/h (1 Bft)
28.05.2016 10:00 21,2 C 56 % 1011,2 hPa 0,0 l/m 2,8 km/h (1 Bft) NO 12,1 C 21,2 C 4,9 km/h (1 Bft)
28.05.2016 11:00 23,0 C 52 % 1010,8 hPa 0,0 l/m 2,9 km/h (1 Bft) N-NW 12,5 C 23,0 C 5,0 km/h (1 Bft)
28.05.2016 12:00 22,6 C 53 % 1010,5 hPa 0,0 l/m 3,5 km/h (1 Bft) NO 12,6 C 22,5 C 6,0 km/h (2 Bft)
28.05.2016 13:00 19,1 C 76 % 1010,5 hPa 0,3 l/m 3,1 km/h (1 Bft) O-NO 14,7 C 19,1 C 5,3 km/h (1 Bft)
28.05.2016 14:00 19,2 C 76 % 1010,2 hPa 0,0 l/m 2,2 km/h (1 Bft) O 14,9 C 19,2 C 4,2 km/h (1 Bft)
28.05.2016 15:00 20,2 C 75 % 1009,7 hPa 0,0 l/m 3,3 km/h (1 Bft) O-NO 15,6 C 20,2 C 5,8 km/h (2 Bft)
28.05.2016 16:00 21,9 C 66 % 1009,1 hPa 0,0 l/m 2,8 km/h (1 Bft) NO 15,2 C 21,9 C 5,2 km/h (1 Bft)
28.05.2016 17:00 21,8 C 64 % 1008,8 hPa 0,0 l/m 3,7 km/h (1 Bft) NW 14,8 C 21,8 C 6,9 km/h (2 Bft)
28.05.2016 18:00 21,6 C 63 % 1008,1 hPa 0,0 l/m 3,3 km/h (1 Bft) S-SW 14,2 C 21,6 C 6,4 km/h (2 Bft)
28.05.2016 19:00 20,7 C 65 % 1007,8 hPa 0,0 l/m 2,6 km/h (1 Bft) W-NW 13,9 C 20,7 C 4,8 km/h (1 Bft)
28.05.2016 20:00 19,4 C 71 % 1007,6 hPa 0,0 l/m 1,7 km/h (1 Bft) W 14,0 C 19,4 C 3,5 km/h (1 Bft)
28.05.2016 21:00 17,9 C 78 % 1007,7 hPa 0,0 l/m 0,3 km/h (0 Bft) S-SW 13,9 C 17,9 C 1,6 km/h (1 Bft)
28.05.2016 22:00 16,7 C 85 % 1007,6 hPa 0,0 l/m 1,7 km/h (1 Bft) NW 14,2 C 16,7 C 3,5 km/h (1 Bft)
28.05.2016 23:00 16,2 C 88 % 1007,5 hPa 0,0 l/m 0,3 km/h (0 Bft) N 14,2 C 16,2 C 1,0 km/h (0 Bft)
29.05.2016 00:00 15,8 C 90 % 1007,5 hPa 0,3 l/m 1,3 km/h (1 Bft) W-SW 14,2 C 15,8 C 2,5 km/h (1 Bft)
29.05.2016 01:00 15,5 C 93 % 1006,8 hPa 0,5 l/m 1,4 km/h (1 Bft) O-NO 14,3 C 15,5 C 2,9 km/h (1 Bft)
29.05.2016 02:00 15,0 C 94 % 1005,7 hPa 0,5 l/m 1,4 km/h (1 Bft) O-NO 14,1 C 15,0 C 3,0 km/h (1 Bft)
29.05.2016 03:00 14,5 C 93 % 1007,2 hPa 1,0 l/m 5,7 km/h (2 Bft) O-NO 13,3 C 14,1 C 10,6 km/h (2 Bft)
29.05.2016 04:00 13,6 C 94 % 1005,7 hPa 0,0 l/m 0,8 km/h (0 Bft) N 12,7 C 13,6 C 1,7 km/h (1 Bft)
29.05.2016 05:00 13,2 C 95 % 1005,4 hPa 0,0 l/m 0,8 km/h (0 Bft) NW 12,3 C 13,2 C 2,0 km/h (1 Bft)
29.05.2016 06:00 12,9 C 95 % 1004,9 hPa 0,0 l/m 0,0 km/h (0 Bft) N 12,1 C 12,9 C 0,3 km/h (0 Bft)
29.05.2016 07:00 14,1 C 94 % 1004,9 hPa 0,0 l/m 0,5 km/h (0 Bft) NW 13,1 C 14,1 C 1,5 km/h (1 Bft)
29.05.2016 08:00 15,3 C 89 % 1004,7 hPa 0,0 l/m 1,1 km/h (1 Bft) N 13,5 C 15,3 C 2,3 km/h (1 Bft)
29.05.2016 09:00 16,3 C 85 % 1004,8 hPa 0,0 l/m 4,2 km/h (1 Bft) NO 13,7 C 16,2 C 7,8 km/h (2 Bft)
29.05.2016 10:00 17,7 C 81 % 1004,5 hPa 0,0 l/m 3,3 km/h (1 Bft) O-NO 14,4 C 17,7 C 6,0 km/h (2 Bft)
29.05.2016 11:00 18,5 C 75 % 1004,2 hPa 0,0 l/m 3,5 km/h (1 Bft) O-NO 14,1 C 18,6 C 5,9 km/h (2 Bft)
29.05.2016 12:00 18,0 C 78 % 1004,3 hPa 0,0 l/m 2,5 km/h (1 Bft) O 14,0 C 18,0 C 4,2 km/h (1 Bft)
29.05.2016 13:00 17,4 C 83 % 1004,5 hPa 0,3 l/m 2,2 km/h (1 Bft) O 14,4 C 17,4 C 3,9 km/h (1 Bft)
29.05.2016 14:00 16,3 C 88 % 1004,5 hPa 0,5 l/m 3,2 km/h (1 Bft) O 14,4 C 16,3 C 5,3 km/h (1 Bft)
29.05.2016 15:00 16,0 C 90 % 1004,1 hPa 0,5 l/m 1,9 km/h (1 Bft) O 14,4 C 16,0 C 3,3 km/h (1 Bft)
29.05.2016 16:00 15,4 C 91 % 1004,4 hPa 3,0 l/m 1,9 km/h (1 Bft) O 13,9 C 15,4 C 3,3 km/h (1 Bft)
29.05.2016 17:00 14,9 C 94 % 1004,4 hPa 3,3 l/m 1,0 km/h (0 Bft) O 14,0 C 14,9 C 2,3 km/h (1 Bft)
29.05.2016 18:00 14,8 C 94 % 1004,0 hPa 0,3 l/m 2,0 km/h (1 Bft) O 13,8 C 14,8 C 4,0 km/h (1 Bft)
29.05.2016 19:00 14,2 C 94 % 1003,7 hPa 0,3 l/m 4,3 km/h (1 Bft) O-NO 13,2 C 14,1 C 8,2 km/h (2 Bft)
29.05.2016 20:00 13,5 C 92 % 1004,6 hPa 0,5 l/m 3,0 km/h (1 Bft) O 12,3 C 13,5 C 5,9 km/h (2 Bft)
29.05.2016 21:00 13,1 C 94 % 1005,1 hPa 0,5 l/m 3,1 km/h (1 Bft) O 12,1 C 13,1 C 5,7 km/h (2 Bft)
29.05.2016 22:00 12,8 C 95 % 1004,9 hPa 1,8 l/m 3,4 km/h (1 Bft) O 12,1 C 12,8 C 6,2 km/h (2 Bft)
29.05.2016 23:00 12,9 C 96 % 1005,1 hPa 2,0 l/m 2,5 km/h (1 Bft) O 12,3 C 12,9 C 5,1 km/h (1 Bft)
Min-Datum _ 26.05.16 27.05.16 29.05.16 - 29.05.16 - 26.05.16 26.05.16 29.05.16
_ Min-Zeit 05:35 15:00 19:31 - 23:04 - 05:35 05:35 17:31
Minimum _ 5,6 C 39 % 1003,2 hPa - 0,0 km/h (0 Bft) - 4,9 C 5,6 C 0,0 km/h (0 Bft)
Max-Datum _ 27.05.16 26.05.16 26.05.16 29.05.16 29.05.16 - 28.05.16 27.05.16 29.05.16
_ Max-Zeit 15:55 07:00 08:15 17:01 03:14 - 16:31 15:55 03:14
Maximum _ 26,5 C 97 % 1015,7 hPa 3,3 l/m 11,3 km/h
O-NO (2 Bft)
- 16,6 C 26,5 C 22,5 km/h
O (4 Bft)
Durchschnitt _ 13,6 C 82 % 1011,9 hPa #28,7 l/m 2,2 km/h (1 Bft) O 10,1 C 13,6 C 5,1 km/h (1 Bft)